(°F)
73°
71°
69°
67°
64°
61°
59°
(°F)
69°
67°
65°
63°
60°
58°
56°
NW
NW
NW
NNW
NNW
NNW
NNW
(mph)
11-20
10-19
10-18
8-18
7-17
6-16
6-15
(in)
0
0
0
0
0
0
0
(%)
15
14
14
10
7
3
2

Sun elevation

/ 18°
sun-icon
UV 7
06:22
20:12
Waning crescent (290°)
03:41
14:34

METAR for Winston-Salem (KINT)

Time Conditions Temperature/
Dewpoint
Wind Visibility Weather Clouds Pressure Change Raw
VFR 75.92°F / 57.02°F 310º 13kt >10km - Clear 1010 - KINT 052154Z 31013KT 10SM CLR 24/14 A2986 RMK AO2 SLP102 T02440139
VFR 75.92°F / 57.92°F 340º 12kt Gust 20kt >10km - Broken Clouds 6000ft 1010 - KINT 052054Z 34012G20KT 10SM BKN060 BKN070 24/14 A2986 RMK AO2 SLP100 T02440144 53006
VFR 80.06°F / 55.94°F 240º variable 200º to 280º 7kt Gust 17kt >10km - Scattered Clouds 6000ft 1009 - KINT 051954Z 24007G17KT 200V280 10SM SCT060 BKN085 27/13 A2983 RMK AO2 SLP092 T02670133
VFR 80.06°F / 57.02°F 250º 8kt >10km - Scattered Clouds 5000ft 1009 - KINT 051854Z 25008KT 10SM SCT050 BKN060 BKN070 27/14 A2984 RMK AO2 SLP093 T02670139
VFR 80.06°F / 57.02°F 270º 12kt Gust 16kt >10km - Broken Clouds 5500ft 1009 - KINT 051754Z 27012G16KT 10SM BKN055 27/14 A2984 RMK AO2 SLP094 T02670139 10278 20183 58006
VFR 80.06°F / 55.04°F 250º variable 210º to 280º 13kt Gust 23kt >10km - Scattered Clouds 5000ft - KINT 051701Z 25013G23KT 210V280 10SM SCT050 27/13 A2984 RMK AO2 T02670128
VFR 77°F / 59°F 240º variable 210º to 270º 8kt Gust 16kt >10km - Scattered Clouds 3900ft 1010 - KINT 051554Z 24008G16KT 210V270 10SM SCT039 SCT049 25/15 A2986 RMK AO2 SLP101 T02500150
VFR 75.02°F / 59°F variable 6kt >10km - Clear 1010 - KINT 051454Z VRB06KT 10SM CLR 24/15 A2986 RMK AO2 SLP100 T02390150 50005
VFR 73.04°F / 60.08°F 260º 5kt >10km - Clear 1010 - KINT 051354Z 26005KT 10SM CLR 23/16 A2986 RMK AO2 SLP102 T02280156
VFR 68°F / 60.98°F 230º 6kt >10km - Clear 1010 - KINT 051254Z 23006KT 10SM CLR 20/16 A2986 RMK AO2 SLP104 T02000161
VFR 66.02°F / 60.98°F 210º 7kt >10km - Clear 1009 - KINT 051154Z 21007KT 10SM CLR 19/16 A2984 RMK AO2 SLP097 70060 T01890161 10189 20178 53016
VFR 64.04°F / 60.08°F variable 3kt >10km - Few Clouds 1100ft 1009 - KINT 051054Z VRB03KT 10SM FEW011 18/16 A2983 RMK AO2 SLP092 T01780156
MVFR 64.94°F / 60.08°F 260º 5kt >10km - Few Clouds 1200ft - KINT 051023Z AUTO 26005KT 10SM FEW012 OVC017 18/16 A2982 RMK AO2 T01830156
MVFR 64.94°F / 60.08°F 260º 5kt >10km - Overcast 1200ft 1008 - KINT 050954Z AUTO 26005KT 10SM OVC012 18/16 A2980 RMK AO2 SLP083 T01830156
MVFR 64.94°F / 60.98°F variable 4kt >10km - Overcast 1200ft 1008 - KINT 050854Z AUTO VRB04KT 10SM OVC012 18/16 A2979 RMK AO2 SLP081 T01830161 55012
MVFR 66.02°F / 60.98°F 230º 7kt >10km - Overcast 1200ft 1007 - KINT 050754Z AUTO 23007KT 10SM OVC012 19/16 A2978 RMK AO2 SLP074 T01890161
MVFR 64.94°F / 60.98°F 170º 5kt >10km - Overcast 1200ft - KINT 050725Z AUTO 17005KT 10SM OVC012 18/16 A2976 RMK AO2 T01830161
MVFR 64.94°F / 60.98°F 180º 6kt >10km - Few Clouds 800ft - KINT 050704Z AUTO 18006KT 10SM FEW008 BKN015 BKN100 18/16 A2978 RMK AO2 T01830161
IFR 66.02°F / 62.06°F 180º variable 008º to 012º 6kt >10km - Broken Clouds 900ft - KINT 050627Z AUTO 18006KT 10SM BKN009 19/17 A2982 RMK AO2 CIG 008V012 T01890167
VFR 66.02°F / 62.06°F 190º variable 160º to 220º 7kt >10km - Few Clouds 900ft 1009 - KINT 050554Z AUTO 19007KT 160V220 10SM FEW009 19/17 A2983 RMK AO2 SLP090 T01890167 10206 20189 58001
VFR 66.02°F / 62.06°F 200º 8kt >10km - Scattered Clouds 800ft - KINT 050505Z AUTO 20008KT 10SM SCT008 19/17 A2984 RMK AO2 T01890167
IFR 66.02°F / 62.06°F 210º variable 006º to 010º 7kt >10km - Broken Clouds 800ft 1009 - KINT 050454Z AUTO 21007KT 10SM BKN008 BKN012 19/17 A2983 RMK AO2 CIG 006V010 SLP090 T01890167 402830189
IFR 66.92°F / 62.96°F 190º variable 005º to 009º 5kt >10km - Broken Clouds 600ft 1009 - KINT 050354Z AUTO 19005KT 10SM BKN006 19/17 A2984 RMK AO2 CIG 005V009 SLP093 T01940172
VFR 66.92°F / 62.96°F 190º 6kt >10km - Scattered Clouds 700ft - KINT 050331Z AUTO 19006KT 10SM SCT007 19/17 A2984 RMK AO2 T01940172

VFR

75.92°F / 57.02°F

[More]
Wind 310º 13kt
Visibility >10km
Weather -
Clouds Clear
Pressure 1010
Change -
Raw KINT 052154Z 31013KT 10SM CLR 24/14 A2986 RMK AO2 SLP102 T02440139

VFR

75.92°F / 57.92°F

[More]
Wind 340º 12kt Gust 20kt
Visibility >10km
Weather -
Clouds Broken Clouds 6000ft
Pressure 1010
Change -
Raw KINT 052054Z 34012G20KT 10SM BKN060 BKN070 24/14 A2986 RMK AO2 SLP100 T02440144 53006

VFR

80.06°F / 55.94°F

[More]
Wind 240º variable 200º to 280º 7kt Gust 17kt
Visibility >10km
Weather -
Clouds Scattered Clouds 6000ft
Pressure 1009
Change -
Raw KINT 051954Z 24007G17KT 200V280 10SM SCT060 BKN085 27/13 A2983 RMK AO2 SLP092 T02670133

VFR

80.06°F / 57.02°F

[More]
Wind 250º 8kt
Visibility >10km
Weather -
Clouds Scattered Clouds 5000ft
Pressure 1009
Change -
Raw KINT 051854Z 25008KT 10SM SCT050 BKN060 BKN070 27/14 A2984 RMK AO2 SLP093 T02670139

VFR

80.06°F / 57.02°F

[More]
Wind 270º 12kt Gust 16kt
Visibility >10km
Weather -
Clouds Broken Clouds 5500ft
Pressure 1009
Change -
Raw KINT 051754Z 27012G16KT 10SM BKN055 27/14 A2984 RMK AO2 SLP094 T02670139 10278 20183 58006

VFR

80.06°F / 55.04°F

[More]
Wind 250º variable 210º to 280º 13kt Gust 23kt
Visibility >10km
Weather -
Clouds Scattered Clouds 5000ft
Pressure
Change -
Raw KINT 051701Z 25013G23KT 210V280 10SM SCT050 27/13 A2984 RMK AO2 T02670128

VFR

77°F / 59°F

[More]
Wind 240º variable 210º to 270º 8kt Gust 16kt
Visibility >10km
Weather -
Clouds Scattered Clouds 3900ft
Pressure 1010
Change -
Raw KINT 051554Z 24008G16KT 210V270 10SM SCT039 SCT049 25/15 A2986 RMK AO2 SLP101 T02500150

VFR

75.02°F / 59°F

[More]
Wind variable 6kt
Visibility >10km
Weather -
Clouds Clear
Pressure 1010
Change -
Raw KINT 051454Z VRB06KT 10SM CLR 24/15 A2986 RMK AO2 SLP100 T02390150 50005

VFR

73.04°F / 60.08°F

[More]
Wind 260º 5kt
Visibility >10km
Weather -
Clouds Clear
Pressure 1010
Change -
Raw KINT 051354Z 26005KT 10SM CLR 23/16 A2986 RMK AO2 SLP102 T02280156

VFR

68°F / 60.98°F

[More]
Wind 230º 6kt
Visibility >10km
Weather -
Clouds Clear
Pressure 1010
Change -
Raw KINT 051254Z 23006KT 10SM CLR 20/16 A2986 RMK AO2 SLP104 T02000161

VFR

66.02°F / 60.98°F

[More]
Wind 210º 7kt
Visibility >10km
Weather -
Clouds Clear
Pressure 1009
Change -
Raw KINT 051154Z 21007KT 10SM CLR 19/16 A2984 RMK AO2 SLP097 70060 T01890161 10189 20178 53016

VFR

64.04°F / 60.08°F

[More]
Wind variable 3kt
Visibility >10km
Weather -
Clouds Few Clouds 1100ft
Pressure 1009
Change -
Raw KINT 051054Z VRB03KT 10SM FEW011 18/16 A2983 RMK AO2 SLP092 T01780156

MVFR

64.94°F / 60.08°F

[More]
Wind 260º 5kt
Visibility >10km
Weather -
Clouds Few Clouds 1200ft
Pressure
Change -
Raw KINT 051023Z AUTO 26005KT 10SM FEW012 OVC017 18/16 A2982 RMK AO2 T01830156

MVFR

64.94°F / 60.08°F

[More]
Wind 260º 5kt
Visibility >10km
Weather -
Clouds Overcast 1200ft
Pressure 1008
Change -
Raw KINT 050954Z AUTO 26005KT 10SM OVC012 18/16 A2980 RMK AO2 SLP083 T01830156

MVFR

64.94°F / 60.98°F

[More]
Wind variable 4kt
Visibility >10km
Weather -
Clouds Overcast 1200ft
Pressure 1008
Change -
Raw KINT 050854Z AUTO VRB04KT 10SM OVC012 18/16 A2979 RMK AO2 SLP081 T01830161 55012

MVFR

66.02°F / 60.98°F

[More]
Wind 230º 7kt
Visibility >10km
Weather -
Clouds Overcast 1200ft
Pressure 1007
Change -
Raw KINT 050754Z AUTO 23007KT 10SM OVC012 19/16 A2978 RMK AO2 SLP074 T01890161

MVFR

64.94°F / 60.98°F

[More]
Wind 170º 5kt
Visibility >10km
Weather -
Clouds Overcast 1200ft
Pressure
Change -
Raw KINT 050725Z AUTO 17005KT 10SM OVC012 18/16 A2976 RMK AO2 T01830161

MVFR

64.94°F / 60.98°F

[More]
Wind 180º 6kt
Visibility >10km
Weather -
Clouds Few Clouds 800ft
Pressure
Change -
Raw KINT 050704Z AUTO 18006KT 10SM FEW008 BKN015 BKN100 18/16 A2978 RMK AO2 T01830161

IFR

66.02°F / 62.06°F

[More]
Wind 180º variable 008º to 012º 6kt
Visibility >10km
Weather -
Clouds Broken Clouds 900ft
Pressure
Change -
Raw KINT 050627Z AUTO 18006KT 10SM BKN009 19/17 A2982 RMK AO2 CIG 008V012 T01890167

VFR

66.02°F / 62.06°F

[More]
Wind 190º variable 160º to 220º 7kt
Visibility >10km
Weather -
Clouds Few Clouds 900ft
Pressure 1009
Change -
Raw KINT 050554Z AUTO 19007KT 160V220 10SM FEW009 19/17 A2983 RMK AO2 SLP090 T01890167 10206 20189 58001

VFR

66.02°F / 62.06°F

[More]
Wind 200º 8kt
Visibility >10km
Weather -
Clouds Scattered Clouds 800ft
Pressure
Change -
Raw KINT 050505Z AUTO 20008KT 10SM SCT008 19/17 A2984 RMK AO2 T01890167

IFR

66.02°F / 62.06°F

[More]
Wind 210º variable 006º to 010º 7kt
Visibility >10km
Weather -
Clouds Broken Clouds 800ft
Pressure 1009
Change -
Raw KINT 050454Z AUTO 21007KT 10SM BKN008 BKN012 19/17 A2983 RMK AO2 CIG 006V010 SLP090 T01890167 402830189

IFR

66.92°F / 62.96°F

[More]
Wind 190º variable 005º to 009º 5kt
Visibility >10km
Weather -
Clouds Broken Clouds 600ft
Pressure 1009
Change -
Raw KINT 050354Z AUTO 19005KT 10SM BKN006 19/17 A2984 RMK AO2 CIG 005V009 SLP093 T01940172

VFR

66.92°F / 62.96°F

[More]
Wind 190º 6kt
Visibility >10km
Weather -
Clouds Scattered Clouds 700ft
Pressure
Change -
Raw KINT 050331Z AUTO 19006KT 10SM SCT007 19/17 A2984 RMK AO2 T01940172

TAF for Winston-Salem (KINT)

From till


From till Wind 260º 12kt. Gust 22kt. Visibility 10km or more. Scattered Clouds 5000ft. Broken Clouds 25000ft.
Temporarly from till Visibility 10km or more. Light Showers Rain . Broken Clouds 5000ft.
From till Wind 330º 12kt. Gust 20kt. Visibility 10km or more. Scattered Clouds 8000ft.
From till Wind 340º 8kt. Visibility 10km or more. Scattered Clouds 2500ft.
From till Wind 360º 5kt. Visibility 10km or more. Scattered Clouds 15000ft.

Raw: KINT 051738Z 0518/0618 26012G22KT P6SM SCT050 BKN250 TEMPO 0519/0521 P6SM -SHRA BKN050 FM052200 33012G20KT P6SM SCT080 FM060400 34008KT P6SM SCT025 FM061500 36005KT P6SM SCT150

Current satellite images for Winston-Salem, United States of America

The location marker is placed on Winston-Salem. [More]

The real-time satellite image combines visible light during daytime with infrared radiation during nighttime. At night, the image is not dark as infrared radiation can detect temperature differences. Unfortunately, low clouds and fog are difficult to distinguish from ground temperatures and thus can be almost invisible during the night. Meteosat satellite images for Europe are updated in real-time every 5 minutes. GOES-16/GOES-17 (North & South America) and Himawari (Asia) images update every 10 minutes.

Radar and precipitation nowcast for Winston-Salem

The location marker is placed on Winston-Salem. This animation shows the precipitation radar for the last hour, as well as a 1h forecast. Drizzle or light snow fall might be invisible for the radar. Precipitation intensity is colour coded, ranging from light blue to heavy purple.